Home > Products > Valid Products > TAF

000
FTUS42 KKEY 262339
TAFMTH
TAF
KMTH 262339Z 2700/2724 10009G17KT P6SM FEW024
     FM272000 09013G20KT P6SM SCT024=



000
FTUS42 KKEY 262339
TAFEYW
TAF
KEYW 262339Z 2700/2724 09012G21KT P6SM FEW024
     FM272200 09012G19KT P6SM SCT024=



000
FTUS42 KKEY 262339
TAFEYW
TAF
KEYW 262339Z 2700/2724 09012G21KT P6SM FEW024
     FM272200 09012G19KT P6SM SCT024=



000
FTUS42 KKEY 261725
TAFEYW
TAF
KEYW 261725Z 2618/2718 10014G19KT P6SM SCT024
     FM271500 10012G17KT P6SM FEW024=



000
FTUS42 KKEY 261725
TAFMTH
TAF
KMTH 261725Z 2618/2718 11010G16KT P6SM FEW023
     FM262100 09010G16KT P6SM SCT023
     FM271500 09010G16KT P6SM FEW023=



000
FTUS42 KKEY 261725
TAFEYW
TAF
KEYW 261725Z 2618/2718 10014G19KT P6SM SCT024
     FM271500 10012G17KT P6SM FEW024=



000
FTUS42 KKEY 261459 AAA
TAFMTH
TAF AMD
KMTH 261459Z 2615/2712 10010G16KT P6SM FEW022
     FM262100 09010G15KT P6SM SCT022=



000
FTUS42 KKEY 261459 AAA
TAFMTH
TAF AMD
KMTH 261459Z 2615/2712 10010G16KT P6SM FEW022
     FM262100 09010G15KT P6SM SCT022=



000
FTUS42 KKEY 261458 AAA
TAFEYW
TAF AMD
KEYW 261458Z 2615/2712 10015G21KT P6SM FEW022
     FM262100 10014G21KT P6SM SCT022=



000
FTUS42 KKEY 261458 AAA
TAFEYW
TAF AMD
KEYW 261458Z 2615/2712 10015G21KT P6SM FEW022
     FM262100 10014G21KT P6SM SCT022=



000
FTUS42 KKEY 261127
TAFMTH
TAF
KMTH 261127Z 2612/2712 09010G17KT P6SM SCT021=



000
FTUS42 KKEY 261127
TAFEYW
TAF
KEYW 261127Z 2612/2712 10014G21KT P6SM SCT022=



000
FTUS42 KKEY 261127
TAFEYW
TAF
KEYW 261127Z 2612/2712 10014G21KT P6SM SCT022=



000
FTUS42 KKEY 260900 AAA
TAFEYW
TAF AMD
KEYW 260900Z 2609/2706 10015G22KT P6SM SCT022=



000
FTUS42 KKEY 260900 AAA
TAFEYW
TAF AMD
KEYW 260900Z 2609/2706 10015G22KT P6SM SCT022=



000
FTUS42 KKEY 260900 AAA
TAFMTH
TAF AMD
KMTH 260900Z 2609/2706 10011G19KT P6SM SCT022=



000
FTUS42 KKEY 260526
TAFEYW
TAF
KEYW 260526Z 2606/2706 10014G20KT P6SM SCT025=



000
FTUS42 KKEY 260526
TAFMTH
TAF
KMTH 260526Z 2606/2706 10011G19KT P6SM SCT025=



000
FTUS42 KKEY 260526
TAFEYW
TAF
KEYW 260526Z 2606/2706 10014G20KT P6SM SCT025=



000
FTUS42 KKEY 260526
TAFEYW
TAF
KEYW 260526Z 2606/2706 10014G20KT P6SM SCT025=



000
FTUS42 KKEY 252337
TAFEYW
TAF
KEYW 252337Z 2600/2624 10015G22KT P6SM SCT025
     FM260200 10012G20KT P6SM SCT025=



000
FTUS42 KKEY 252337
TAFEYW
TAF
KEYW 252337Z 2600/2624 10015G22KT P6SM SCT025
     FM260200 10012G20KT P6SM SCT025=



000
FTUS42 KKEY 252337
TAFMTH
TAF
KMTH 252337Z 2600/2624 10011G19KT P6SM SCT025=



000
FTUS42 KKEY 252337
TAFMTH
TAF
KMTH 252337Z 2600/2624 10011G19KT P6SM SCT025=



000
FTUS42 KKEY 252337
TAFEYW
TAF
KEYW 252337Z 2600/2624 10015G22KT P6SM SCT025
     FM260200 10012G20KT P6SM SCT025=



000
FTUS42 KKEY 252337
TAFEYW
TAF
KEYW 252337Z 2600/2624 10015G22KT P6SM SCT025
     FM260200 10012G20KT P6SM SCT025=



000
FTUS42 KKEY 252223 AAC
TAFMTH
TAF AMD
KMTH 252223Z 2522/2618 10012G21KT P6SM SCT025
     FM260100 10010G18KT P6SM SCT025=



000
FTUS42 KKEY 252223 AAA
TAFEYW
TAF AMD
KEYW 252223Z 2522/2618 10016G22KT P6SM SCT025
     FM260100 10012G20KT P6SM SCT025=



000
FTUS42 KKEY 252223 AAA
TAFEYW
TAF AMD
KEYW 252223Z 2522/2618 10016G22KT P6SM SCT025
     FM260100 10012G20KT P6SM SCT025=



000
FTUS42 KKEY 251851 AAB
TAFMTH
TAF AMD
KMTH 251851Z 2519/2618 10010G19KT P6SM VCSH FEW023 FEW050
     FM252200 10012G19KT P6SM FEW023=



000
FTUS42 KKEY 251742 AAA
TAFMTH
TAF AMD
KMTH 251742Z 2518/2618 10010G19KT P6SM VCSH FEW023 FEW050
      TEMPO 2518/2520 VRB12G23KT TSRA SCT010 BKN020CB
     FM252000 10012G19KT P6SM FEW023=



000
FTUS42 KKEY 251738
TAFEYW
TAF
KEYW 251738Z 2518/2618 11013G20KT P6SM VCSH FEW020 FEW050
     FM252100 10012G19KT P6SM FEW023=



000
FTUS42 KKEY 251738
TAFEYW
TAF
KEYW 251738Z 2518/2618 11013G20KT P6SM VCSH FEW020 FEW050
     FM252100 10012G19KT P6SM FEW023=



000
FTUS42 KKEY 251738
TAFMTH
TAF
KMTH 251738Z 2518/2618 10010G19KT P6SM VCSH FEW023 FEW050
     FM252000 10012G19KT P6SM FEW023=



000
FTUS42 KKEY 251738
TAFEYW
TAF
KEYW 251738Z 2518/2618 11013G20KT P6SM VCSH FEW020 FEW050
     FM252100 10012G19KT P6SM FEW023=



000
FTUS42 KKEY 251508 AAA
TAFMTH
TAF AMD
KMTH 251508Z 2515/2612 10010G19KT P6SM VCSH FEW023 FEW050
     FM251800 10012G19KT P6SM FEW023=



000
FTUS42 KKEY 251507 AAA
TAFEYW
TAF AMD
KEYW 251507Z 2515/2612 11013G20KT P6SM VCSH FEW020 FEW050
     FM251800 10012G19KT P6SM FEW023=



000
FTUS42 KKEY 251507 AAA
TAFEYW
TAF AMD
KEYW 251507Z 2515/2612 11013G20KT P6SM VCSH FEW020 FEW050
     FM251800 10012G19KT P6SM FEW023=



000
FTUS42 KKEY 251134
TAFEYW
TAF
KEYW 251134Z 2512/2612 10013G20KT P6SM VCSH FEW020 SCT050
     FM251500 10012G19KT P6SM FEW023=



000
FTUS42 KKEY 251134
TAFMTH
TAF
KMTH 251134Z 2512/2612 10010G19KT P6SM VCSH SCT023 SCT050
     FM251500 10012G19KT P6SM FEW023=



000
FTUS42 KKEY 251134
TAFEYW
TAF
KEYW 251134Z 2512/2612 10013G20KT P6SM VCSH FEW020 SCT050
     FM251500 10012G19KT P6SM FEW023=



000
FTUS42 KKEY 250900 AAA
TAFEYW
TAF AMD
KEYW 250900Z 2509/2606 10011G17KT P6SM VCSH FEW020 SCT050
     FM251200 10012G19KT P6SM FEW023=



000
FTUS42 KKEY 250900 AAA
TAFEYW
TAF AMD
KEYW 250900Z 2509/2606 10011G17KT P6SM VCSH FEW020 SCT050
     FM251200 10012G19KT P6SM FEW023=



000
FTUS42 KKEY 250538
TAFEYW
TAF
KEYW 250538Z 2506/2606 10013G21KT P6SM SCT020
     FM250700 10013G22KT P6SM VCSH SCT020 BKN050
     FM251200 10014G21KT P6SM FEW023=



000
FTUS42 KKEY 250538
TAFMTH
TAF
KMTH 250538Z 2506/2606 09010G16KT P6SM VCSH SCT023 SCT050
      TEMPO 2506/2507 12012G25KT 3SM SHRA BKN020 BKN050
     FM251200 10012G19KT P6SM FEW023=



000
FTUS42 KKEY 250538
TAFEYW
TAF
KEYW 250538Z 2506/2606 10013G21KT P6SM SCT020
     FM250700 10013G22KT P6SM VCSH SCT020 BKN050
     FM251200 10014G21KT P6SM FEW023=



000
FTUS42 KKEY 250401 AAD
TAFMTH
TAF AMD
KMTH 250401Z 2504/2524 09010KT P6SM VCSH SCT023 SCT050
      TEMPO 2505/2506 12012G25KT 3SM TSRA BKN020 BKN050CB
     FM251200 10011G17KT P6SM FEW023=



000
FTUS42 KKEY 250329 AAC
TAFMTH
TAF AMD
KMTH 250329Z 2503/2524 09010KT P6SM VCTS SCT023CB SCT050
      TEMPO 2503/2505 12012G25KT 3SM TSRA BKN020 BKN050CB
     FM251200 10011G17KT P6SM FEW023=



000
FTUS42 KKEY 250250 AAB
TAFMTH
TAF AMD
KMTH 250250Z 2503/2524 09010KT P6SM VCSH SCT023 SCT050
      TEMPO 2503/2505 12012G22KT 3SM SHRA BKN023 BKN050
     FM251200 10011G17KT P6SM FEW023=



000
FTUS42 KKEY 250250 AAB
TAFMTH
TAF AMD
KMTH 250250Z 2503/2524 09010KT P6SM VCSH SCT023 SCT050
      TEMPO 2503/2505 12012G22KT 3SM SHRA BKN023 BKN050
     FM251200 10011G17KT P6SM FEW023=



000
FTUS42 KKEY 250211 AAA
TAFMTH
TAF AMD
KMTH 250211Z 2502/2524 09010KT P6SM SCT023
      TEMPO 2502/2506 BKN023
     FM251200 10011G17KT P6SM FEW023=



000
FTUS42 KKEY 242322
TAFMTH
TAF
KMTH 242322Z 2500/2524 08011G17KT P6SM FEW023
     FM250600 09010KT P6SM SCT023
     FM251200 10011G17KT P6SM FEW023=



000
FTUS42 KKEY 242322
TAFEYW
TAF
KEYW 242322Z 2500/2524 10014G21KT P6SM FEW023
     FM250600 10012KT P6SM SCT023
     FM251200 10014G21KT P6SM FEW023=



000
FTUS42 KKEY 242322
TAFEYW
TAF
KEYW 242322Z 2500/2524 10014G21KT P6SM FEW023
     FM250600 10012KT P6SM SCT023
     FM251200 10014G21KT P6SM FEW023=



000
FTUS42 KKEY 242322
TAFEYW
TAF
KEYW 242322Z 2500/2524 10014G21KT P6SM FEW023
     FM250600 10012KT P6SM SCT023
     FM251200 10014G21KT P6SM FEW023=



000
FTUS42 KKEY 242322
TAFMTH
TAF
KMTH 242322Z 2500/2524 08011G17KT P6SM FEW023
     FM250600 09010KT P6SM SCT023
     FM251200 10011G17KT P6SM FEW023=



000
FTUS42 KKEY 242322
TAFEYW
TAF
KEYW 242322Z 2500/2524 10014G21KT P6SM FEW023
     FM250600 10012KT P6SM SCT023
     FM251200 10014G21KT P6SM FEW023=



000
FTUS42 KKEY 241734
TAFMTH
TAF
KMTH 241734Z 2418/2518 09013G18KT P6SM SCT025=



000
FTUS42 KKEY 241734
TAFEYW
TAF
KEYW 241734Z 2418/2518 10014G21KT P6SM SCT025=



000
FTUS42 KKEY 241734
TAFEYW
TAF
KEYW 241734Z 2418/2518 10014G21KT P6SM SCT025=



000
FTUS42 KKEY 241530 AAA
TAFEYW
TAF AMD
KEYW 241530Z 2416/2512 10015G21KT P6SM SCT025 SCT035=



000
FTUS42 KKEY 241530 AAA
TAFEYW
TAF AMD
KEYW 241530Z 2416/2512 10015G21KT P6SM SCT025 SCT035=



000
FTUS42 KKEY 241530 AAA
TAFEYW
TAF AMD
KEYW 241530Z 2416/2512 10015G21KT P6SM SCT025 SCT035=



000
FTUS42 KKEY 241128
TAFMTH
TAF
KMTH 241128Z 2412/2512 09013G18KT P6SM SCT025=



000
FTUS42 KKEY 241128
TAFEYW
TAF
KEYW 241128Z 2412/2512 09015G21KT P6SM SCT025 SCT035=



000
FTUS42 KKEY 241128
TAFEYW
TAF
KEYW 241128Z 2412/2512 09015G21KT P6SM SCT025 SCT035=



000
FTUS42 KKEY 241128
TAFMTH
TAF
KMTH 241128Z 2412/2512 09013G18KT P6SM SCT025=



000
FTUS42 KKEY 241128
TAFEYW
TAF
KEYW 241128Z 2412/2512 09015G21KT P6SM SCT025 SCT035=



000
FTUS42 KKEY 241128
TAFEYW
TAF
KEYW 241128Z 2412/2512 09015G21KT P6SM SCT025 SCT035=



000
FTUS42 KKEY 240841 AAA
TAFEYW
TAF AMD
KEYW 240841Z 2409/2506 09015G21KT P6SM SCT025=



000
FTUS42 KKEY 240841 AAA
TAFEYW
TAF AMD
KEYW 240841Z 2409/2506 09015G21KT P6SM SCT025=



000
FTUS42 KKEY 240541
TAFEYW
TAF
KEYW 240541Z 2406/2506 09014G19KT P6SM SCT025=



000
FTUS42 KKEY 240541
TAFEYW
TAF
KEYW 240541Z 2406/2506 09014G19KT P6SM SCT025=



000
FTUS42 KKEY 240541
TAFMTH
TAF
KMTH 240541Z 2406/2506 09012G18KT P6SM SCT025=



000
FTUS42 KKEY 240541
TAFMTH
TAF
KMTH 240541Z 2406/2506 09012G18KT P6SM SCT025=



000
FTUS42 KKEY 240541
TAFEYW
TAF
KEYW 240541Z 2406/2506 09014G19KT P6SM SCT025=



000
FTUS42 KKEY 240541
TAFEYW
TAF
KEYW 240541Z 2406/2506 09014G19KT P6SM SCT025=



    US Dept of Commerce
    National Oceanic and Atmospheric Administration
    National Weather Service
    1325 East West Highway
    Silver Spring, MD 20910
    Page Author: NWS Internet Services Team
Disclaimer
Information Quality
Credits
Glossary
Privacy Policy
Freedom of Information Act (FOIA)
About Us
Career Opportunities